createdAt,value
2024-05-09T00:00:53.404Z,100.00
2024-05-09T00:03:21.733Z,100.00
2024-05-09T00:05:49.978Z,100.00
2024-05-09T00:08:18.351Z,100.00
2024-05-09T00:10:49.836Z,100.00
2024-05-09T00:13:18.171Z,100.00
2024-05-09T00:15:46.336Z,100.00
2024-05-09T00:18:14.662Z,100.00
2024-05-09T00:20:43.319Z,100.00
2024-05-09T00:23:12.411Z,100.00
2024-05-09T00:25:42.661Z,100.00
2024-05-09T00:28:13.224Z,100.00
2024-05-09T00:30:41.468Z,100.00
2024-05-09T00:33:11.034Z,100.00
2024-05-09T00:35:40.059Z,100.00
2024-05-09T00:38:08.432Z,100.00
2024-05-09T00:40:42.174Z,100.00
2024-05-09T00:43:12.290Z,100.00
2024-05-09T00:45:41.052Z,100.00
2024-05-09T00:48:10.652Z,100.00
2024-05-09T00:50:42.406Z,100.00
2024-05-09T00:53:15.242Z,100.00
2024-05-09T00:55:43.390Z,100.00
2024-05-09T00:58:11.410Z,100.00
2024-05-09T01:00:41.101Z,100.00
2024-05-09T01:03:12.528Z,100.00
2024-05-09T01:05:43.306Z,100.00
2024-05-09T01:08:12.257Z,100.00
2024-05-09T01:10:43.881Z,100.00
2024-05-09T01:13:14.107Z,100.00
2024-05-09T01:15:42.976Z,100.00
2024-05-09T01:18:14.358Z,100.00
2024-05-09T01:20:45.193Z,100.00
2024-05-09T01:23:15.718Z,100.00
2024-05-09T01:25:45.628Z,100.00
2024-05-09T01:28:13.774Z,100.00
2024-05-09T01:30:41.942Z,100.00
2024-05-09T01:33:11.662Z,100.00
2024-05-09T01:35:42.310Z,100.00
2024-05-09T01:38:14.398Z,100.00
2024-05-09T01:40:42.646Z,100.00
2024-05-09T01:43:12.033Z,100.00
2024-05-09T01:45:41.019Z,100.00
2024-05-09T01:48:09.631Z,100.00
2024-05-09T01:50:41.611Z,100.00
2024-05-09T01:53:11.838Z,100.00
2024-05-09T01:55:40.566Z,100.00
2024-05-09T01:58:09.885Z,100.00
2024-05-09T02:00:42.568Z,100.00
2024-05-09T02:03:15.400Z,100.00
2024-05-09T02:05:46.157Z,100.00
2024-05-09T02:08:16.741Z,100.00
2024-05-09T02:10:45.553Z,100.00
2024-05-09T02:13:13.504Z,100.00
2024-05-09T02:15:41.506Z,100.00
2024-05-09T02:18:09.223Z,100.00
2024-05-09T02:20:39.137Z,100.00
2024-05-09T02:23:07.522Z,100.00
2024-05-09T02:25:36.393Z,100.00
2024-05-09T02:28:04.982Z,100.00
2024-05-09T02:30:39.587Z,100.00
2024-05-09T02:33:12.823Z,100.00
2024-05-09T02:35:41.864Z,100.00
2024-05-09T02:38:13.598Z,100.00
2024-05-09T02:40:41.997Z,100.00
2024-05-09T02:43:11.062Z,100.00
2024-05-09T02:46:02.543Z,100.00
2024-05-09T02:48:33.897Z,100.00
2024-05-09T02:51:02.757Z,100.00
2024-05-09T02:53:31.237Z,100.00
2024-05-09T02:55:59.702Z,100.00
2024-05-09T02:58:27.805Z,100.00
2024-05-09T03:00:56.251Z,100.00
2024-05-09T03:03:24.495Z,100.00
2024-05-09T03:05:53.521Z,100.00
2024-05-09T03:08:21.411Z,100.00
2024-05-09T03:10:49.525Z,100.00
2024-05-09T03:13:17.377Z,100.00
2024-05-09T03:15:46.147Z,100.00
2024-05-09T03:18:14.242Z,100.00
2024-05-09T03:20:44.427Z,100.00
2024-05-09T03:23:12.401Z,100.00
2024-05-09T03:25:40.938Z,100.00
2024-05-09T03:28:08.916Z,100.00
2024-05-09T03:30:41.871Z,100.00
2024-05-09T03:33:19.261Z,100.00
2024-05-09T03:35:49.526Z,100.00
2024-05-09T03:38:17.734Z,100.00
2024-05-09T03:41:09.188Z,100.00
2024-05-09T03:43:38.624Z,100.00
2024-05-09T03:46:06.640Z,100.00
2024-05-09T03:48:37.783Z,100.00
2024-05-09T03:51:06.795Z,100.00
2024-05-09T03:53:34.773Z,100.00
2024-05-09T03:56:03.996Z,100.00
2024-05-09T03:58:32.570Z,100.00
2024-05-09T04:01:00.907Z,100.00
2024-05-09T04:03:29.101Z,100.00
2024-05-09T04:05:56.842Z,100.00
2024-05-09T04:08:24.810Z,100.00
2024-05-09T04:10:52.858Z,100.00
2024-05-09T04:13:23.464Z,100.00
2024-05-09T04:15:51.594Z,100.00
2024-05-09T04:18:19.760Z,100.00
2024-05-09T04:20:47.552Z,100.00
2024-05-09T04:23:15.779Z,100.00
2024-05-09T04:25:44.747Z,100.00
2024-05-09T04:28:13.070Z,100.00
2024-05-09T04:30:42.221Z,100.00
2024-05-09T04:33:12.466Z,100.00
2024-05-09T04:35:43.443Z,100.00
2024-05-09T04:38:12.242Z,100.00
2024-05-09T04:40:40.670Z,100.00
2024-05-09T04:43:14.548Z,100.00
2024-05-09T04:45:42.891Z,100.00
2024-05-09T04:48:11.392Z,100.00
2024-05-09T04:50:40.160Z,100.00
2024-05-09T04:53:09.912Z,100.00
2024-05-09T04:55:39.610Z,100.00
2024-05-09T04:58:11.067Z,100.00
2024-05-09T05:00:40.772Z,100.00
2024-05-09T05:03:14.082Z,100.00
2024-05-09T05:05:45.062Z,100.00
2024-05-09T05:13:41.687Z,100.00
2024-05-09T05:16:10.771Z,100.00
2024-05-09T05:21:15.660Z,100.00
2024-05-09T05:23:44.507Z,100.00
2024-05-09T05:26:13.379Z,100.00
2024-05-09T05:28:41.854Z,100.00
2024-05-09T05:33:45.806Z,100.00
2024-05-09T05:36:14.628Z,100.00
2024-05-09T05:41:24.580Z,100.00
2024-05-09T05:43:52.786Z,100.00
2024-05-09T05:49:16.960Z,100.00
2024-05-09T05:54:26.414Z,100.00
2024-05-09T05:59:29.548Z,100.00
2024-05-09T06:10:26.288Z,100.00
2024-05-09T06:27:22.601Z,100.00
2024-05-09T06:29:50.914Z,100.00
2024-05-09T06:32:19.296Z,100.00
2024-05-09T06:34:47.563Z,100.00
2024-05-09T06:37:15.860Z,100.00
2024-05-09T06:39:44.028Z,100.00
2024-05-09T06:42:12.002Z,100.00
2024-05-09T06:44:40.328Z,100.00
2024-05-09T06:47:08.602Z,100.00
2024-05-09T06:49:38.571Z,100.00
2024-05-09T06:52:07.600Z,100.00
2024-05-09T06:54:35.316Z,100.00
2024-05-09T06:59:37.536Z,100.00
2024-05-09T07:02:05.970Z,100.00
2024-05-09T07:04:34.649Z,100.00
2024-05-09T07:07:04.882Z,100.00
2024-05-09T07:09:33.067Z,100.00
2024-05-09T07:12:01.483Z,99.23
2024-05-09T07:14:30.518Z,95.34
2024-05-09T07:16:58.740Z,98.83
2024-05-09T07:19:27.132Z,95.32
2024-05-09T07:21:55.504Z,92.39
2024-05-09T07:24:24.337Z,84.21
2024-05-09T07:26:52.504Z,77.80
2024-05-09T07:29:21.603Z,77.71
2024-05-09T07:31:50.572Z,71.24
2024-05-09T07:34:19.078Z,70.45
2024-05-09T07:36:47.154Z,70.06
2024-05-09T07:39:15.247Z,67.50
2024-05-09T07:41:43.510Z,70.06
2024-05-09T07:44:11.713Z,70.50
2024-05-09T07:47:47.702Z,65.72
2024-05-09T07:53:22.113Z,60.52
2024-05-09T07:54:48.119Z,58.99
2024-05-09T07:57:16.629Z,58.44
2024-05-09T07:59:44.878Z,56.92
2024-05-09T08:02:13.660Z,56.55
2024-05-09T08:04:42.635Z,55.97
2024-05-09T08:07:11.356Z,53.59
2024-05-09T08:09:40.080Z,55.41
2024-05-09T08:12:09.615Z,52.40
2024-05-09T08:14:37.958Z,54.60
2024-05-09T08:17:06.880Z,58.74
2024-05-09T08:19:36.444Z,59.12
2024-05-09T08:22:09.381Z,60.41
2024-05-09T08:24:37.043Z,60.08
2024-05-09T08:27:06.309Z,60.68
2024-05-09T08:29:34.240Z,58.44
2024-05-09T08:32:02.767Z,58.18
2024-05-09T08:34:31.313Z,58.71
2024-05-09T08:37:01.769Z,59.98
2024-05-09T08:39:33.906Z,60.69
2024-05-09T08:42:01.668Z,60.79
2024-05-09T08:44:29.488Z,62.08
2024-05-09T08:46:57.593Z,61.80
2024-05-09T08:49:26.322Z,61.58
2024-05-09T08:51:55.080Z,59.93
2024-05-09T08:54:23.405Z,59.14
2024-05-09T08:56:51.539Z,58.97
2024-05-09T08:59:26.166Z,57.34
2024-05-09T09:01:53.492Z,57.17
2024-05-09T09:04:22.262Z,59.24
2024-05-09T09:06:50.988Z,62.39
2024-05-09T09:09:20.914Z,61.42
2024-05-09T09:11:49.033Z,59.74
2024-05-09T09:14:17.558Z,63.43
2024-05-09T09:16:46.493Z,67.79
2024-05-09T09:19:15.069Z,65.60
2024-05-09T09:21:43.653Z,65.84
2024-05-09T09:24:11.711Z,69.42
2024-05-09T09:26:39.592Z,62.97
2024-05-09T09:29:07.740Z,63.91
2024-05-09T09:31:37.400Z,62.85
2024-05-09T09:34:09.434Z,63.80
2024-05-09T09:36:37.051Z,61.06
2024-05-09T09:39:03.885Z,57.53
2024-05-09T09:41:32.314Z,60.68
2024-05-09T09:44:00.327Z,62.55
2024-05-09T09:46:29.020Z,62.40
2024-05-09T09:48:57.102Z,64.40
2024-05-09T09:51:26.007Z,59.38
2024-05-09T09:53:54.545Z,56.97
2024-05-09T09:56:22.947Z,53.92
2024-05-09T09:58:53.710Z,54.43
2024-05-09T10:01:21.570Z,55.09
2024-05-09T10:03:49.514Z,55.03
2024-05-09T10:06:17.316Z,59.68
2024-05-09T10:08:46.681Z,59.50
2024-05-09T10:11:14.911Z,54.49
2024-05-09T10:13:43.367Z,56.71
2024-05-09T10:16:12.701Z,61.50
2024-05-09T10:18:40.830Z,63.04
2024-05-09T10:21:21.138Z,56.90
2024-05-09T10:24:03.335Z,53.93
2024-05-09T10:26:35.442Z,55.73
2024-05-09T10:29:17.063Z,57.10
2024-05-09T10:31:45.110Z,52.88
2024-05-09T10:34:22.891Z,50.98
2024-05-09T10:36:56.418Z,52.22
2024-05-09T10:39:26.952Z,50.18
2024-05-09T10:41:54.707Z,52.09
2024-05-09T10:44:22.317Z,52.60
2024-05-09T10:46:50.770Z,50.95
2024-05-09T10:49:19.671Z,51.41
2024-05-09T10:51:48.223Z,52.54
2024-05-09T10:54:16.429Z,51.03
2024-05-09T10:56:44.143Z,49.30
2024-05-09T10:59:11.577Z,47.98
2024-05-09T11:01:38.720Z,48.52
2024-05-09T11:04:07.318Z,49.68
2024-05-09T11:06:38.249Z,46.86
2024-05-09T11:09:06.222Z,47.46
2024-05-09T11:11:34.372Z,47.69
2024-05-09T11:14:01.825Z,47.61
2024-05-09T11:16:30.398Z,48.01
2024-05-09T11:18:59.020Z,45.79
2024-05-09T11:21:27.342Z,44.98
2024-05-09T11:23:55.018Z,43.68
2024-05-09T11:26:25.175Z,45.69
2024-05-09T11:28:53.139Z,47.12
2024-05-09T11:31:21.886Z,45.66
2024-05-09T11:33:50.396Z,43.10
2024-05-09T11:36:18.106Z,43.43
2024-05-09T11:38:46.141Z,41.92
2024-05-09T11:41:20.184Z,42.60
2024-05-09T11:43:48.305Z,41.14
2024-05-09T11:46:16.620Z,42.88
2024-05-09T11:48:47.420Z,44.07
2024-05-09T11:51:15.629Z,42.18
2024-05-09T11:53:44.151Z,38.97
2024-05-09T11:56:12.210Z,37.06
2024-05-09T11:58:41.937Z,38.27
2024-05-09T12:01:10.445Z,38.79
2024-05-09T12:03:38.729Z,38.96
2024-05-09T12:06:07.088Z,38.85
2024-05-09T12:08:35.377Z,37.16
2024-05-09T12:11:03.305Z,36.64
2024-05-09T12:13:31.733Z,34.83
2024-05-09T12:16:01.010Z,35.48
2024-05-09T12:18:28.762Z,34.44
2024-05-09T12:20:56.655Z,33.94
2024-05-09T12:23:24.596Z,33.18
2024-05-09T12:25:52.641Z,34.21
2024-05-09T12:28:20.829Z,33.30
2024-05-09T12:30:49.920Z,33.66
2024-05-09T12:33:20.047Z,32.88
2024-05-09T12:35:50.724Z,33.82
2024-05-09T12:38:18.606Z,35.75
2024-05-09T12:40:46.331Z,35.92
2024-05-09T12:43:14.784Z,35.42
2024-05-09T12:45:43.202Z,35.18
2024-05-09T12:48:12.481Z,35.05
2024-05-09T12:50:42.064Z,34.85
2024-05-09T12:53:10.632Z,33.77
2024-05-09T12:55:45.043Z,34.00
2024-05-09T12:58:23.061Z,33.27
2024-05-09T13:00:52.622Z,32.97
2024-05-09T13:03:21.044Z,31.67
2024-05-09T13:05:49.722Z,31.73
2024-05-09T13:08:17.839Z,30.84
2024-05-09T13:10:46.009Z,30.36
2024-05-09T13:13:14.371Z,31.21
2024-05-09T13:15:42.252Z,32.09
2024-05-09T13:18:10.826Z,29.16
2024-05-09T13:20:39.101Z,29.71
2024-05-09T13:23:08.200Z,29.65
2024-05-09T13:25:39.631Z,28.98
2024-05-09T13:28:08.473Z,28.81
2024-05-09T13:30:40.832Z,27.57
2024-05-09T13:33:12.871Z,28.58
2024-05-09T13:35:47.610Z,28.26
2024-05-09T13:38:21.562Z,27.04
2024-05-09T13:40:51.778Z,27.32
2024-05-09T13:43:21.301Z,28.77
2024-05-09T13:45:49.460Z,28.42
2024-05-09T13:48:18.050Z,27.39
2024-05-09T13:50:46.409Z,27.29
2024-05-09T13:53:14.727Z,28.35
2024-05-09T13:55:42.749Z,26.84
2024-05-09T13:58:10.904Z,27.14
2024-05-09T14:00:46.334Z,27.29
2024-05-09T14:03:18.673Z,28.10
2024-05-09T14:05:51.292Z,28.06
2024-05-09T14:08:20.568Z,28.19
2024-05-09T14:10:49.715Z,28.78
2024-05-09T14:13:18.879Z,28.19
2024-05-09T14:15:47.669Z,29.10
2024-05-09T14:18:15.551Z,29.16
2024-05-09T14:20:44.076Z,29.97
2024-05-09T14:23:15.127Z,29.46
2024-05-09T14:25:44.060Z,28.31
2024-05-09T14:28:13.665Z,28.30
2024-05-09T14:30:43.005Z,26.92
2024-05-09T14:33:11.279Z,26.54
2024-05-09T14:35:39.717Z,26.18
2024-05-09T14:38:09.102Z,25.67
2024-05-09T14:40:44.057Z,26.34
2024-05-09T14:43:13.459Z,25.96
2024-05-09T14:45:41.765Z,26.57
2024-05-09T14:48:08.952Z,27.87
2024-05-09T14:50:39.999Z,28.06
2024-05-09T14:53:12.180Z,29.29
2024-05-09T14:55:41.930Z,30.12
2024-05-09T14:58:11.858Z,30.55
2024-05-09T15:00:47.762Z,30.94
2024-05-09T15:03:22.126Z,30.30
2024-05-09T15:05:51.670Z,30.13
2024-05-09T15:08:21.231Z,30.39
2024-05-09T15:10:50.429Z,31.37
2024-05-09T15:13:19.589Z,31.92
2024-05-09T15:15:47.589Z,32.18
2024-05-09T15:18:15.705Z,32.20
2024-05-09T15:20:44.999Z,32.51
2024-05-09T15:23:13.434Z,32.19
2024-05-09T15:25:41.702Z,32.88
2024-05-09T15:28:09.928Z,32.92
2024-05-09T15:30:39.614Z,32.99
2024-05-09T15:33:08.797Z,33.08
2024-05-09T15:35:41.213Z,32.23
2024-05-09T15:38:08.674Z,31.23
2024-05-09T15:40:40.025Z,32.38
2024-05-09T15:43:11.350Z,32.63
2024-05-09T15:45:40.767Z,32.08
2024-05-09T15:48:09.591Z,32.56
2024-05-09T15:50:41.210Z,33.61
2024-05-09T15:53:10.483Z,33.27
2024-05-09T15:55:39.406Z,33.93
2024-05-09T15:58:07.633Z,34.56
2024-05-09T16:00:39.798Z,34.95
2024-05-09T16:03:11.284Z,35.09
2024-05-09T16:05:40.755Z,34.49
2024-05-09T16:08:08.704Z,35.25
2024-05-09T16:10:43.191Z,36.16
2024-05-09T16:13:12.554Z,37.01
2024-05-09T16:15:41.003Z,37.73
2024-05-09T16:18:09.186Z,38.15
2024-05-09T16:20:40.450Z,37.37
2024-05-09T16:23:10.305Z,36.78
2024-05-09T16:25:38.519Z,37.72
2024-05-09T16:28:10.458Z,38.17
2024-05-09T16:30:42.073Z,38.57
2024-05-09T16:33:11.816Z,37.72
2024-05-09T16:35:40.196Z,39.00
2024-05-09T16:38:10.708Z,36.51
2024-05-09T16:40:40.954Z,36.88
2024-05-09T16:43:32.396Z,37.61
2024-05-09T16:46:00.776Z,37.89
2024-05-09T16:48:28.882Z,37.79
2024-05-09T16:50:57.349Z,39.20
2024-05-09T16:53:25.806Z,40.25
2024-05-09T16:55:53.670Z,39.33
2024-05-09T16:58:22.286Z,39.77
2024-05-09T17:00:51.221Z,40.87
2024-05-09T17:03:20.678Z,42.42
2024-05-09T17:05:49.041Z,43.19
2024-05-09T17:08:20.476Z,42.67
2024-05-09T17:10:49.909Z,41.98
2024-05-09T17:13:19.342Z,42.22
2024-05-09T17:15:47.610Z,43.08
2024-05-09T17:18:15.365Z,43.93
2024-05-09T17:20:43.439Z,44.08
2024-05-09T17:23:14.727Z,45.48
2024-05-09T17:25:42.478Z,46.27
2024-05-09T17:28:10.688Z,47.05
2024-05-09T17:30:40.363Z,47.21
2024-05-09T17:33:10.296Z,48.33
2024-05-09T17:35:39.103Z,48.22
2024-05-09T17:38:10.374Z,49.19
2024-05-09T17:43:14.289Z,51.31
2024-05-09T17:45:42.630Z,52.14
2024-05-09T17:48:11.412Z,51.79
2024-05-09T17:50:41.036Z,51.14
2024-05-09T17:53:10.240Z,50.94
2024-05-09T17:55:38.311Z,50.13
2024-05-09T17:58:10.156Z,50.36
2024-05-09T18:00:41.360Z,50.74
2024-05-09T18:03:11.953Z,51.07
2024-05-09T18:05:42.327Z,49.71
2024-05-09T18:08:11.516Z,48.17
2024-05-09T18:10:41.074Z,49.08
2024-05-09T18:13:09.652Z,51.07
2024-05-09T18:15:38.202Z,52.34
2024-05-09T18:18:07.090Z,54.70
2024-05-09T18:20:42.958Z,56.30
2024-05-09T18:23:15.630Z,59.13
2024-05-09T18:25:44.784Z,63.67
2024-05-09T18:28:12.891Z,65.79
2024-05-09T18:30:40.938Z,65.68
2024-05-09T18:33:11.536Z,65.76
2024-05-09T18:35:40.821Z,66.22
2024-05-09T18:38:08.958Z,66.03
2024-05-09T18:40:38.422Z,65.10
2024-05-09T18:43:08.955Z,65.20
2024-05-09T18:45:38.823Z,65.37
2024-05-09T18:48:12.474Z,63.75
2024-05-09T18:50:41.407Z,64.61
2024-05-09T18:53:10.342Z,64.10
2024-05-09T18:55:39.183Z,64.81
2024-05-09T18:58:07.187Z,64.19
2024-05-09T19:00:38.778Z,65.40
2024-05-09T19:03:11.594Z,64.62
2024-05-09T19:05:43.527Z,64.68
2024-05-09T19:08:12.770Z,64.99
2024-05-09T19:10:40.837Z,64.95
2024-05-09T19:13:29.927Z,65.49
2024-05-09T19:15:58.346Z,65.86
2024-05-09T19:18:27.184Z,67.32
2024-05-09T19:20:55.529Z,68.11
2024-05-09T19:23:23.983Z,68.58
2024-05-09T19:25:51.651Z,71.27
2024-05-09T19:28:20.031Z,73.37
2024-05-09T19:30:48.183Z,73.88
2024-05-09T19:33:16.160Z,78.96
2024-05-09T19:35:44.313Z,83.74
2024-05-09T19:38:12.897Z,86.14
2024-05-09T19:40:40.764Z,89.91
2024-05-09T19:43:08.686Z,92.70
2024-05-09T19:45:37.026Z,98.96
2024-05-09T19:48:06.021Z,100.00
2024-05-09T19:50:41.463Z,100.00
2024-05-09T19:53:12.125Z,100.00
2024-05-09T19:55:42.528Z,100.00
2024-05-09T19:58:11.920Z,100.00
2024-05-09T20:00:42.611Z,100.00
2024-05-09T20:03:40.956Z,100.00
2024-05-09T20:06:09.442Z,100.00
2024-05-09T20:08:39.257Z,100.00
2024-05-09T20:11:06.828Z,100.00
2024-05-09T20:13:34.773Z,100.00
2024-05-09T20:16:02.804Z,100.00
2024-05-09T20:18:31.096Z,100.00
2024-05-09T20:21:00.550Z,100.00
2024-05-09T20:23:29.453Z,100.00
2024-05-09T20:25:57.597Z,99.91
2024-05-09T20:28:26.550Z,99.92
2024-05-09T20:30:55.204Z,100.00
2024-05-09T20:33:23.800Z,100.00
2024-05-09T20:36:01.621Z,100.00
2024-05-09T20:38:30.536Z,100.00
2024-05-09T20:40:58.371Z,100.00
2024-05-09T20:43:28.947Z,100.00
2024-05-09T20:45:57.001Z,100.00
2024-05-09T20:48:24.905Z,100.00
2024-05-09T20:50:53.357Z,100.00
2024-05-09T20:53:21.411Z,100.00
2024-05-09T20:55:49.861Z,100.00
2024-05-09T20:58:18.253Z,100.00
2024-05-09T21:00:46.936Z,100.00
2024-05-09T21:03:16.880Z,100.00
2024-05-09T21:05:45.574Z,100.00
2024-05-09T21:08:13.672Z,100.00
2024-05-09T21:10:44.918Z,100.00
2024-05-09T21:13:13.409Z,100.00
2024-05-09T21:15:41.349Z,100.00
2024-05-09T21:18:09.610Z,100.00
2024-05-09T21:20:37.782Z,100.00
2024-05-09T21:23:06.426Z,100.00
2024-05-09T21:25:35.177Z,100.00
2024-05-09T21:28:03.948Z,100.00
2024-05-09T21:30:41.008Z,100.00
2024-05-09T21:33:12.454Z,100.00
2024-05-09T21:35:42.841Z,100.00
2024-05-09T21:38:11.206Z,100.00
2024-05-09T21:40:39.515Z,100.00
2024-05-09T21:43:07.187Z,100.00
2024-05-09T21:45:35.255Z,100.00
2024-05-09T21:48:09.160Z,100.00
2024-05-09T21:50:41.029Z,100.00
2024-05-09T21:53:13.890Z,100.00
2024-05-09T21:56:03.717Z,100.00
2024-05-09T21:58:32.395Z,100.00
2024-05-09T22:01:00.791Z,100.00
2024-05-09T22:03:29.291Z,100.00
2024-05-09T22:05:57.329Z,100.00
2024-05-09T22:08:25.960Z,100.00
2024-05-09T22:10:54.521Z,100.00
2024-05-09T22:13:22.135Z,100.00
2024-05-09T22:15:50.854Z,100.00
2024-05-09T22:18:19.237Z,100.00
2024-05-09T22:20:47.618Z,100.00
2024-05-09T22:23:16.067Z,100.00
2024-05-09T22:25:47.756Z,100.00
2024-05-09T22:28:16.360Z,100.00
2024-05-09T22:30:46.230Z,100.00
2024-05-09T22:33:15.154Z,100.00
2024-05-09T22:35:43.476Z,100.00
2024-05-09T22:38:11.416Z,100.00
2024-05-09T22:40:47.170Z,100.00
2024-05-09T22:43:21.343Z,100.00
2024-05-09T22:45:51.299Z,100.00
2024-05-09T22:48:20.216Z,100.00
2024-05-09T22:50:48.710Z,98.77
2024-05-09T22:53:16.337Z,98.02
2024-05-09T22:55:44.766Z,97.27
2024-05-09T22:58:12.631Z,96.24
2024-05-09T23:00:40.783Z,96.10
2024-05-09T23:03:09.058Z,96.44
2024-05-09T23:05:37.569Z,95.11
2024-05-09T23:08:08.994Z,95.23
2024-05-09T23:10:38.230Z,94.86
2024-05-09T23:13:09.802Z,95.14
2024-05-09T23:15:40.679Z,95.20
2024-05-09T23:18:09.287Z,95.12
2024-05-09T23:20:39.903Z,95.12
2024-05-09T23:23:10.038Z,94.74
2024-05-09T23:25:39.506Z,94.69
2024-05-09T23:28:08.606Z,94.46
2024-05-09T23:30:39.638Z,94.24
2024-05-09T23:33:12.680Z,93.56
2024-05-09T23:35:42.160Z,93.54
2024-05-09T23:38:10.062Z,92.66
2024-05-09T23:40:40.497Z,91.35
2024-05-09T23:43:11.641Z,90.69
2024-05-09T23:45:40.718Z,88.68
2024-05-09T23:48:10.731Z,86.37
2024-05-09T23:50:40.211Z,84.62
2024-05-09T23:53:09.529Z,80.70
2024-05-09T23:55:38.554Z,79.08
2024-05-09T23:58:07.500Z,76.49
